sensor_id;sensor_type;location;lat;lon;timestamp;P1;durP1;ratioP1;P2;durP2;ratioP2
12112;SDS011;6120;52.250;8.478;2023-07-28T00:01:55;3.92;;;3.53;;
12112;SDS011;6120;52.250;8.478;2023-07-28T00:04:22;3.50;;;3.20;;
12112;SDS011;6120;52.250;8.478;2023-07-28T00:06:49;3.60;;;3.30;;
12112;SDS011;6120;52.250;8.478;2023-07-28T00:09:15;3.92;;;3.63;;
12112;SDS011;6120;52.250;8.478;2023-07-28T00:11:42;3.45;;;3.15;;
12112;SDS011;6120;52.250;8.478;2023-07-28T00:14:08;3.80;;;3.50;;
12112;SDS011;6120;52.250;8.478;2023-07-28T00:16:35;4.72;;;3.70;;
12112;SDS011;6120;52.250;8.478;2023-07-28T00:19:02;3.80;;;3.50;;
12112;SDS011;6120;52.250;8.478;2023-07-28T00:21:29;4.13;;;3.72;;
12112;SDS011;6120;52.250;8.478;2023-07-28T00:23:56;4.13;;;3.80;;
12112;SDS011;6120;52.250;8.478;2023-07-28T00:26:23;4.25;;;3.85;;
12112;SDS011;6120;52.250;8.478;2023-07-28T00:28:49;4.50;;;4.10;;
12112;SDS011;6120;52.250;8.478;2023-07-28T00:31:16;4.03;;;3.72;;
12112;SDS011;6120;52.250;8.478;2023-07-28T00:33:43;4.45;;;4.05;;
12112;SDS011;6120;52.250;8.478;2023-07-28T00:36:09;3.97;;;3.58;;
12112;SDS011;6120;52.250;8.478;2023-07-28T00:38:36;4.20;;;3.90;;
12112;SDS011;6120;52.250;8.478;2023-07-28T00:41:03;4.32;;;3.92;;
12112;SDS011;6120;52.250;8.478;2023-07-28T00:43:30;3.80;;;3.50;;
12112;SDS011;6120;52.250;8.478;2023-07-28T00:45:56;4.65;;;4.28;;
12112;SDS011;6120;52.250;8.478;2023-07-28T00:48:23;4.45;;;4.05;;
12112;SDS011;6120;52.250;8.478;2023-07-28T00:50:51;4.35;;;3.95;;
12112;SDS011;6120;52.250;8.478;2023-07-28T00:53:20;4.07;;;3.78;;
12112;SDS011;6120;52.250;8.478;2023-07-28T00:55:48;4.63;;;4.22;;
12112;SDS011;6120;52.250;8.478;2023-07-28T00:58:15;4.10;;;3.63;;
12112;SDS011;6120;52.250;8.478;2023-07-28T01:00:42;4.50;;;4.10;;
12112;SDS011;6120;52.250;8.478;2023-07-28T01:03:08;4.72;;;4.32;;
12112;SDS011;6120;52.250;8.478;2023-07-28T01:05:48;4.65;;;4.28;;
12112;SDS011;6120;52.250;8.478;2023-07-28T01:11:00;4.70;;;4.30;;
12112;SDS011;6120;52.250;8.478;2023-07-28T01:13:27;4.45;;;4.05;;
12112;SDS011;6120;52.250;8.478;2023-07-28T01:15:54;4.43;;;4.03;;
12112;SDS011;6120;52.250;8.478;2023-07-28T01:18:21;5.05;;;4.30;;
12112;SDS011;6120;52.250;8.478;2023-07-28T01:20:47;4.20;;;3.90;;
12112;SDS011;6120;52.250;8.478;2023-07-28T01:26:09;4.13;;;3.83;;
12112;SDS011;6120;52.250;8.478;2023-07-28T01:28:37;4.28;;;3.88;;
12112;SDS011;6120;52.250;8.478;2023-07-28T01:31:05;4.55;;;4.20;;
12112;SDS011;6120;52.250;8.478;2023-07-28T01:33:33;4.70;;;4.30;;
12112;SDS011;6120;52.250;8.478;2023-07-28T01:36:00;5.63;;;3.80;;
12112;SDS011;6120;52.250;8.478;2023-07-28T01:38:27;4.30;;;3.90;;
12112;SDS011;6120;52.250;8.478;2023-07-28T01:40:54;4.28;;;3.88;;
12112;SDS011;6120;52.250;8.478;2023-07-28T01:43:21;4.38;;;4.00;;
12112;SDS011;6120;52.250;8.478;2023-07-28T01:45:48;4.30;;;3.90;;
12112;SDS011;6120;52.250;8.478;2023-07-28T01:48:15;4.28;;;3.97;;
12112;SDS011;6120;52.250;8.478;2023-07-28T01:50:41;3.40;;;3.10;;
12112;SDS011;6120;52.250;8.478;2023-07-28T01:53:08;3.67;;;3.38;;
12112;SDS011;6120;52.250;8.478;2023-07-28T01:55:35;4.13;;;3.78;;
12112;SDS011;6120;52.250;8.478;2023-07-28T01:58:02;4.30;;;3.90;;
12112;SDS011;6120;52.250;8.478;2023-07-28T02:00:29;3.75;;;3.45;;
12112;SDS011;6120;52.250;8.478;2023-07-28T02:02:56;4.15;;;3.75;;
12112;SDS011;6120;52.250;8.478;2023-07-28T02:05:24;4.10;;;3.70;;
12112;SDS011;6120;52.250;8.478;2023-07-28T02:07:51;4.25;;;3.85;;
12112;SDS011;6120;52.250;8.478;2023-07-28T02:10:17;3.90;;;3.60;;
12112;SDS011;6120;52.250;8.478;2023-07-28T02:12:44;4.20;;;3.90;;
12112;SDS011;6120;52.250;8.478;2023-07-28T02:15:11;4.05;;;3.75;;
12112;SDS011;6120;52.250;8.478;2023-07-28T02:17:38;4.20;;;3.90;;
12112;SDS011;6120;52.250;8.478;2023-07-28T02:20:05;3.90;;;3.60;;
12112;SDS011;6120;52.250;8.478;2023-07-28T02:22:33;4.30;;;4.00;;
12112;SDS011;6120;52.250;8.478;2023-07-28T02:25:00;4.20;;;3.90;;
12112;SDS011;6120;52.250;8.478;2023-07-28T02:27:28;4.00;;;3.70;;
12112;SDS011;6120;52.250;8.478;2023-07-28T02:29:55;5.03;;;4.00;;
12112;SDS011;6120;52.250;8.478;2023-07-28T02:32:22;3.92;;;3.63;;
12112;SDS011;6120;52.250;8.478;2023-07-28T02:34:49;3.78;;;3.47;;
12112;SDS011;6120;52.250;8.478;2023-07-28T02:37:16;4.00;;;3.70;;
12112;SDS011;6120;52.250;8.478;2023-07-28T02:39:42;4.13;;;3.72;;
12112;SDS011;6120;52.250;8.478;2023-07-28T02:42:09;3.65;;;3.35;;
12112;SDS011;6120;52.250;8.478;2023-07-28T02:44:35;3.72;;;3.42;;
12112;SDS011;6120;52.250;8.478;2023-07-28T02:47:02;4.00;;;3.70;;
12112;SDS011;6120;52.250;8.478;2023-07-28T02:49:29;3.75;;;3.45;;
12112;SDS011;6120;52.250;8.478;2023-07-28T02:51:56;4.00;;;3.70;;
12112;SDS011;6120;52.250;8.478;2023-07-28T02:54:22;4.22;;;3.92;;
12112;SDS011;6120;52.250;8.478;2023-07-28T02:56:51;3.75;;;3.45;;
12112;SDS011;6120;52.250;8.478;2023-07-28T02:59:18;4.28;;;3.90;;
12112;SDS011;6120;52.250;8.478;2023-07-28T03:01:45;3.67;;;3.38;;
12112;SDS011;6120;52.250;8.478;2023-07-28T03:04:11;3.95;;;3.65;;
12112;SDS011;6120;52.250;8.478;2023-07-28T03:06:38;4.13;;;3.67;;
12112;SDS011;6120;52.250;8.478;2023-07-28T03:09:05;4.05;;;3.75;;
12112;SDS011;6120;52.250;8.478;2023-07-28T03:11:31;4.03;;;3.72;;
12112;SDS011;6120;52.250;8.478;2023-07-28T03:13:58;4.03;;;3.72;;
12112;SDS011;6120;52.250;8.478;2023-07-28T03:16:25;4.68;;;4.28;;
12112;SDS011;6120;52.250;8.478;2023-07-28T03:18:51;4.18;;;3.88;;
12112;SDS011;6120;52.250;8.478;2023-07-28T03:21:18;3.97;;;3.67;;
12112;SDS011;6120;52.250;8.478;2023-07-28T03:23:45;4.20;;;3.90;;
12112;SDS011;6120;52.250;8.478;2023-07-28T03:26:11;3.88;;;3.58;;
12112;SDS011;6120;52.250;8.478;2023-07-28T03:28:38;5.10;;;3.53;;
12112;SDS011;6120;52.250;8.478;2023-07-28T03:31:04;3.72;;;3.42;;
12112;SDS011;6120;52.250;8.478;2023-07-28T03:33:31;4.30;;;3.92;;
12112;SDS011;6120;52.250;8.478;2023-07-28T03:35:58;4.50;;;4.10;;
12112;SDS011;6120;52.250;8.478;2023-07-28T03:38:24;4.35;;;4.05;;
12112;SDS011;6120;52.250;8.478;2023-07-28T03:40:51;4.80;;;4.43;;
12112;SDS011;6120;52.250;8.478;2023-07-28T03:43:18;4.30;;;4.00;;
12112;SDS011;6120;52.250;8.478;2023-07-28T03:45:44;4.63;;;4.22;;
12112;SDS011;6120;52.250;8.478;2023-07-28T03:48:11;4.15;;;3.85;;
12112;SDS011;6120;52.250;8.478;2023-07-28T03:50:38;4.72;;;4.35;;
12112;SDS011;6120;52.250;8.478;2023-07-28T03:53:04;4.07;;;3.78;;
12112;SDS011;6120;52.250;8.478;2023-07-28T03:55:31;4.43;;;3.95;;
12112;SDS011;6120;52.250;8.478;2023-07-28T03:57:58;4.18;;;3.88;;
12112;SDS011;6120;52.250;8.478;2023-07-28T04:00:24;4.97;;;4.47;;
12112;SDS011;6120;52.250;8.478;2023-07-28T04:02:51;4.90;;;4.38;;
12112;SDS011;6120;52.250;8.478;2023-07-28T04:05:18;4.50;;;4.20;;
12112;SDS011;6120;52.250;8.478;2023-07-28T04:07:44;4.68;;;4.28;;
12112;SDS011;6120;52.250;8.478;2023-07-28T04:10:11;4.50;;;4.10;;
12112;SDS011;6120;52.250;8.478;2023-07-28T04:12:38;4.35;;;4.05;;
12112;SDS011;6120;52.250;8.478;2023-07-28T04:15:04;4.40;;;3.90;;
12112;SDS011;6120;52.250;8.478;2023-07-28T04:17:31;4.57;;;4.18;;
12112;SDS011;6120;52.250;8.478;2023-07-28T04:19:58;4.40;;;4.10;;
12112;SDS011;6120;52.250;8.478;2023-07-28T04:22:25;4.28;;;3.88;;
12112;SDS011;6120;52.250;8.478;2023-07-28T04:24:51;4.20;;;3.80;;
12112;SDS011;6120;52.250;8.478;2023-07-28T04:27:19;4.72;;;3.95;;
12112;SDS011;6120;52.250;8.478;2023-07-28T04:29:46;3.90;;;3.60;;
12112;SDS011;6120;52.250;8.478;2023-07-28T04:32:13;4.18;;;3.88;;
12112;SDS011;6120;52.250;8.478;2023-07-28T04:34:39;3.83;;;3.50;;
12112;SDS011;6120;52.250;8.478;2023-07-28T04:37:06;3.80;;;3.50;;
12112;SDS011;6120;52.250;8.478;2023-07-28T04:39:32;3.78;;;3.42;;
12112;SDS011;6120;52.250;8.478;2023-07-28T04:41:59;3.88;;;3.58;;
12112;SDS011;6120;52.250;8.478;2023-07-28T04:44:26;3.80;;;3.50;;
12112;SDS011;6120;52.250;8.478;2023-07-28T04:46:52;3.65;;;3.30;;
12112;SDS011;6120;52.250;8.478;2023-07-28T04:49:19;3.65;;;3.35;;
12112;SDS011;6120;52.250;8.478;2023-07-28T04:54:14;3.45;;;3.15;;
12112;SDS011;6120;52.250;8.478;2023-07-28T04:56:40;3.92;;;3.63;;
12112;SDS011;6120;52.250;8.478;2023-07-28T04:59:07;3.70;;;3.40;;
12112;SDS011;6120;52.250;8.478;2023-07-28T05:01:34;3.75;;;3.45;;
12112;SDS011;6120;52.250;8.478;2023-07-28T05:04:01;3.53;;;3.22;;
12112;SDS011;6120;52.250;8.478;2023-07-28T05:06:27;4.15;;;3.85;;
12112;SDS011;6120;52.250;8.478;2023-07-28T05:08:54;4.00;;;3.70;;
12112;SDS011;6120;52.250;8.478;2023-07-28T05:11:21;4.00;;;3.42;;
12112;SDS011;6120;52.250;8.478;2023-07-28T05:13:47;4.03;;;3.72;;
12112;SDS011;6120;52.250;8.478;2023-07-28T05:16:14;3.85;;;3.55;;
12112;SDS011;6120;52.250;8.478;2023-07-28T05:18:41;3.97;;;3.67;;
12112;SDS011;6120;52.250;8.478;2023-07-28T05:21:09;3.90;;;3.60;;
12112;SDS011;6120;52.250;8.478;2023-07-28T05:23:35;4.18;;;3.88;;
12112;SDS011;6120;52.250;8.478;2023-07-28T05:26:02;3.80;;;3.50;;
12112;SDS011;6120;52.250;8.478;2023-07-28T05:28:28;4.68;;;4.28;;
12112;SDS011;6120;52.250;8.478;2023-07-28T05:31:02;4.20;;;3.90;;
12112;SDS011;6120;52.250;8.478;2023-07-28T05:33:30;4.50;;;4.10;;
12112;SDS011;6120;52.250;8.478;2023-07-28T05:36:03;7.25;;;4.07;;
12112;SDS011;6120;52.250;8.478;2023-07-28T05:38:31;4.47;;;4.18;;
12112;SDS011;6120;52.250;8.478;2023-07-28T05:40:59;4.15;;;3.85;;
12112;SDS011;6120;52.250;8.478;2023-07-28T05:43:33;4.40;;;4.10;;
12112;SDS011;6120;52.250;8.478;2023-07-28T05:46:00;4.05;;;3.75;;
12112;SDS011;6120;52.250;8.478;2023-07-28T05:48:27;4.75;;;4.45;;
12112;SDS011;6120;52.250;8.478;2023-07-28T05:50:53;4.88;;;4.57;;
12112;SDS011;6120;52.250;8.478;2023-07-28T05:53:21;4.80;;;4.43;;
12112;SDS011;6120;52.250;8.478;2023-07-28T05:55:47;5.18;;;4.78;;
12112;SDS011;6120;52.250;8.478;2023-07-28T05:58:15;5.40;;;5.00;;
12112;SDS011;6120;52.250;8.478;2023-07-28T06:00:41;5.10;;;4.70;;
12112;SDS011;6120;52.250;8.478;2023-07-28T06:03:11;5.57;;;5.07;;
12112;SDS011;6120;52.250;8.478;2023-07-28T06:05:39;4.63;;;4.22;;
12112;SDS011;6120;52.250;8.478;2023-07-28T06:08:08;4.93;;;4.53;;
12112;SDS011;6120;52.250;8.478;2023-07-28T06:10:35;5.68;;;5.28;;
12112;SDS011;6120;52.250;8.478;2023-07-28T06:13:01;5.53;;;5.13;;
12112;SDS011;6120;52.250;8.478;2023-07-28T06:15:28;5.03;;;4.63;;
12112;SDS011;6120;52.250;8.478;2023-07-28T06:17:55;5.13;;;4.72;;
12112;SDS011;6120;52.250;8.478;2023-07-28T06:20:22;5.43;;;5.00;;
12112;SDS011;6120;52.250;8.478;2023-07-28T06:22:49;4.88;;;4.47;;
12112;SDS011;6120;52.250;8.478;2023-07-28T06:25:15;4.65;;;4.25;;
12112;SDS011;6120;52.250;8.478;2023-07-28T06:27:42;5.05;;;4.65;;
12112;SDS011;6120;52.250;8.478;2023-07-28T06:30:09;4.95;;;4.55;;
12112;SDS011;6120;52.250;8.478;2023-07-28T06:32:36;4.80;;;4.40;;
12112;SDS011;6120;52.250;8.478;2023-07-28T06:35:03;4.80;;;4.40;;
12112;SDS011;6120;52.250;8.478;2023-07-28T06:37:30;3.97;;;3.67;;
12112;SDS011;6120;52.250;8.478;2023-07-28T06:39:57;3.70;;;3.40;;
12112;SDS011;6120;52.250;8.478;2023-07-28T06:42:23;3.95;;;3.65;;
12112;SDS011;6120;52.250;8.478;2023-07-28T06:44:50;3.53;;;3.22;;
12112;SDS011;6120;52.250;8.478;2023-07-28T06:47:17;3.97;;;3.67;;
12112;SDS011;6120;52.250;8.478;2023-07-28T06:49:44;3.35;;;3.10;;
12112;SDS011;6120;52.250;8.478;2023-07-28T06:52:11;3.55;;;3.25;;
12112;SDS011;6120;52.250;8.478;2023-07-28T06:54:39;4.75;;;3.80;;
12112;SDS011;6120;52.250;8.478;2023-07-28T06:57:06;3.92;;;3.63;;
12112;SDS011;6120;52.250;8.478;2023-07-28T06:59:33;3.85;;;3.55;;
12112;SDS011;6120;52.250;8.478;2023-07-28T07:01:59;4.20;;;3.90;;
12112;SDS011;6120;52.250;8.478;2023-07-28T07:04:26;3.70;;;3.40;;
12112;SDS011;6120;52.250;8.478;2023-07-28T07:06:53;3.78;;;3.47;;
12112;SDS011;6120;52.250;8.478;2023-07-28T07:09:19;3.75;;;3.45;;
12112;SDS011;6120;52.250;8.478;2023-07-28T07:11:46;3.30;;;3.10;;
12112;SDS011;6120;52.250;8.478;2023-07-28T07:14:13;3.60;;;3.30;;
12112;SDS011;6120;52.250;8.478;2023-07-28T07:16:40;3.53;;;3.23;;
12112;SDS011;6120;52.250;8.478;2023-07-28T07:19:07;4.20;;;3.70;;
12112;SDS011;6120;52.250;8.478;2023-07-28T07:21:35;3.50;;;3.20;;
12112;SDS011;6120;52.250;8.478;2023-07-28T07:24:03;3.70;;;3.40;;
12112;SDS011;6120;52.250;8.478;2023-07-28T07:26:30;3.55;;;3.25;;
12112;SDS011;6120;52.250;8.478;2023-07-28T07:28:59;3.90;;;3.60;;
12112;SDS011;6120;52.250;8.478;2023-07-28T07:31:26;3.72;;;3.42;;
12112;SDS011;6120;52.250;8.478;2023-07-28T07:33:53;3.88;;;3.58;;
12112;SDS011;6120;52.250;8.478;2023-07-28T07:36:20;3.92;;;3.63;;
12112;SDS011;6120;52.250;8.478;2023-07-28T07:38:47;4.07;;;3.78;;
12112;SDS011;6120;52.250;8.478;2023-07-28T07:41:15;3.92;;;3.63;;
12112;SDS011;6120;52.250;8.478;2023-07-28T07:43:48;3.78;;;3.47;;
12112;SDS011;6120;52.250;8.478;2023-07-28T07:46:15;4.18;;;3.88;;
12112;SDS011;6120;52.250;8.478;2023-07-28T07:48:42;3.70;;;3.40;;
12112;SDS011;6120;52.250;8.478;2023-07-28T07:51:09;3.60;;;3.30;;
12112;SDS011;6120;52.250;8.478;2023-07-28T07:53:37;3.67;;;3.38;;
12112;SDS011;6120;52.250;8.478;2023-07-28T07:56:04;4.07;;;3.78;;
12112;SDS011;6120;52.250;8.478;2023-07-28T07:58:31;3.70;;;3.40;;
12112;SDS011;6120;52.250;8.478;2023-07-28T08:00:58;3.67;;;3.38;;
12112;SDS011;6120;52.250;8.478;2023-07-28T08:03:25;3.63;;;3.33;;
12112;SDS011;6120;52.250;8.478;2023-07-28T08:05:51;3.63;;;3.33;;
12112;SDS011;6120;52.250;8.478;2023-07-28T08:08:19;3.72;;;3.42;;
12112;SDS011;6120;52.250;8.478;2023-07-28T08:10:46;3.63;;;3.33;;
12112;SDS011;6120;52.250;8.478;2023-07-28T08:13:14;3.67;;;3.38;;
12112;SDS011;6120;52.250;8.478;2023-07-28T08:15:44;3.65;;;3.35;;
12112;SDS011;6120;52.250;8.478;2023-07-28T08:18:12;4.35;;;3.92;;
12112;SDS011;6120;52.250;8.478;2023-07-28T08:20:39;3.58;;;3.28;;
12112;SDS011;6120;52.250;8.478;2023-07-28T08:23:06;3.15;;;2.92;;
12112;SDS011;6120;52.250;8.478;2023-07-28T08:25:33;3.28;;;2.97;;
12112;SDS011;6120;52.250;8.478;2023-07-28T08:28:01;3.83;;;3.53;;
12112;SDS011;6120;52.250;8.478;2023-07-28T08:30:28;3.22;;;2.92;;
12112;SDS011;6120;52.250;8.478;2023-07-28T08:32:54;2.95;;;2.75;;
12112;SDS011;6120;52.250;8.478;2023-07-28T08:35:21;2.90;;;2.70;;
12112;SDS011;6120;52.250;8.478;2023-07-28T08:37:48;2.80;;;2.60;;
12112;SDS011;6120;52.250;8.478;2023-07-28T08:40:15;3.10;;;2.80;;
12112;SDS011;6120;52.250;8.478;2023-07-28T08:42:43;2.95;;;2.75;;
12112;SDS011;6120;52.250;8.478;2023-07-28T08:45:10;2.80;;;2.45;;
12112;SDS011;6120;52.250;8.478;2023-07-28T08:47:37;3.00;;;2.70;;
12112;SDS011;6120;52.250;8.478;2023-07-28T08:50:04;2.65;;;2.45;;
12112;SDS011;6120;52.250;8.478;2023-07-28T08:52:32;2.78;;;2.58;;
12112;SDS011;6120;52.250;8.478;2023-07-28T08:54:59;2.97;;;2.78;;
12112;SDS011;6120;52.250;8.478;2023-07-28T08:57:26;2.90;;;2.65;;
12112;SDS011;6120;52.250;8.478;2023-07-28T08:59:54;3.13;;;2.92;;
12112;SDS011;6120;52.250;8.478;2023-07-28T09:02:20;3.17;;;2.90;;
12112;SDS011;6120;52.250;8.478;2023-07-28T09:04:48;2.67;;;2.47;;
12112;SDS011;6120;52.250;8.478;2023-07-28T09:07:15;2.83;;;2.63;;
12112;SDS011;6120;52.250;8.478;2023-07-28T09:09:42;2.70;;;2.50;;
12112;SDS011;6120;52.250;8.478;2023-07-28T09:12:09;2.88;;;2.67;;
12112;SDS011;6120;52.250;8.478;2023-07-28T09:14:36;3.05;;;2.80;;
12112;SDS011;6120;52.250;8.478;2023-07-28T09:17:10;2.60;;;2.40;;
12112;SDS011;6120;52.250;8.478;2023-07-28T09:19:49;2.83;;;2.60;;
12112;SDS011;6120;52.250;8.478;2023-07-28T09:22:18;2.75;;;2.55;;
12112;SDS011;6120;52.250;8.478;2023-07-28T09:27:24;3.03;;;2.83;;
12112;SDS011;6120;52.250;8.478;2023-07-28T09:29:52;2.95;;;2.75;;
12112;SDS011;6120;52.250;8.478;2023-07-28T09:32:28;5.70;;;2.80;;
12112;SDS011;6120;52.250;8.478;2023-07-28T09:35:09;2.50;;;2.30;;
12112;SDS011;6120;52.250;8.478;2023-07-28T09:37:40;2.85;;;2.63;;
12112;SDS011;6120;52.250;8.478;2023-07-28T09:40:10;2.83;;;2.60;;
12112;SDS011;6120;52.250;8.478;2023-07-28T09:42:41;2.67;;;2.47;;
12112;SDS011;6120;52.250;8.478;2023-07-28T09:45:09;2.50;;;2.30;;
12112;SDS011;6120;52.250;8.478;2023-07-28T09:47:52;2.70;;;2.50;;
12112;SDS011;6120;52.250;8.478;2023-07-28T09:50:23;2.72;;;2.53;;
12112;SDS011;6120;52.250;8.478;2023-07-28T09:52:53;2.60;;;2.40;;
12112;SDS011;6120;52.250;8.478;2023-07-28T09:55:20;2.42;;;2.22;;
12112;SDS011;6120;52.250;8.478;2023-07-28T09:57:51;2.30;;;2.10;;
12112;SDS011;6120;52.250;8.478;2023-07-28T10:00:20;2.47;;;2.28;;
12112;SDS011;6120;52.250;8.478;2023-07-28T10:02:49;2.30;;;2.10;;
12112;SDS011;6120;52.250;8.478;2023-07-28T10:05:17;2.70;;;2.50;;
12112;SDS011;6120;52.250;8.478;2023-07-28T10:07:44;2.70;;;2.50;;
12112;SDS011;6120;52.250;8.478;2023-07-28T10:10:31;2.60;;;2.40;;
12112;SDS011;6120;52.250;8.478;2023-07-28T10:12:58;2.55;;;2.35;;
12112;SDS011;6120;52.250;8.478;2023-07-28T10:15:30;2.67;;;2.47;;
12112;SDS011;6120;52.250;8.478;2023-07-28T10:17:58;2.50;;;2.30;;
12112;SDS011;6120;52.250;8.478;2023-07-28T10:20:32;2.78;;;2.58;;
12112;SDS011;6120;52.250;8.478;2023-07-28T10:23:06;2.70;;;2.50;;
12112;SDS011;6120;52.250;8.478;2023-07-28T10:25:34;2.88;;;2.58;;
12112;SDS011;6120;52.250;8.478;2023-07-28T10:28:02;2.30;;;2.10;;
12112;SDS011;6120;52.250;8.478;2023-07-28T10:30:50;2.67;;;2.47;;
12112;SDS011;6120;52.250;8.478;2023-07-28T10:33:31;3.73;;;2.53;;
12112;SDS011;6120;52.250;8.478;2023-07-28T10:36:20;2.40;;;2.20;;
12112;SDS011;6120;52.250;8.478;2023-07-28T10:41:30;2.50;;;2.30;;
12112;SDS011;6120;52.250;8.478;2023-07-28T10:44:01;2.95;;;2.70;;
12112;SDS011;6120;52.250;8.478;2023-07-28T10:46:28;3.00;;;2.70;;
12112;SDS011;6120;52.250;8.478;2023-07-28T10:48:55;2.90;;;2.70;;
12112;SDS011;6120;52.250;8.478;2023-07-28T10:51:23;2.67;;;2.47;;
12112;SDS011;6120;52.250;8.478;2023-07-28T10:54:00;3.15;;;2.85;;
12112;SDS011;6120;52.250;8.478;2023-07-28T10:56:29;3.63;;;3.10;;
12112;SDS011;6120;52.250;8.478;2023-07-28T10:59:00;3.75;;;3.13;;
12112;SDS011;6120;52.250;8.478;2023-07-28T11:01:31;3.63;;;3.33;;
12112;SDS011;6120;52.250;8.478;2023-07-28T11:04:10;2.92;;;2.72;;
12112;SDS011;6120;52.250;8.478;2023-07-28T11:06:38;3.35;;;2.78;;
12112;SDS011;6120;52.250;8.478;2023-07-28T11:09:07;2.72;;;2.53;;
12112;SDS011;6120;52.250;8.478;2023-07-28T11:11:34;2.90;;;2.60;;
12112;SDS011;6120;52.250;8.478;2023-07-28T11:14:04;2.97;;;2.78;;
12112;SDS011;6120;52.250;8.478;2023-07-28T11:16:32;3.17;;;2.88;;
12112;SDS011;6120;52.250;8.478;2023-07-28T11:19:01;3.00;;;2.75;;
12112;SDS011;6120;52.250;8.478;2023-07-28T11:21:29;2.60;;;2.40;;
12112;SDS011;6120;52.250;8.478;2023-07-28T11:23:56;3.30;;;3.00;;
12112;SDS011;6120;52.250;8.478;2023-07-28T11:26:23;2.95;;;2.75;;
12112;SDS011;6120;52.250;8.478;2023-07-28T11:28:50;3.08;;;2.88;;
12112;SDS011;6120;52.250;8.478;2023-07-28T11:31:22;2.72;;;2.53;;
12112;SDS011;6120;52.250;8.478;2023-07-28T11:33:52;3.08;;;2.88;;
12112;SDS011;6120;52.250;8.478;2023-07-28T11:36:25;3.08;;;2.80;;
12112;SDS011;6120;52.250;8.478;2023-07-28T11:38:53;3.03;;;2.80;;
12112;SDS011;6120;52.250;8.478;2023-07-28T11:41:21;2.75;;;2.55;;
12112;SDS011;6120;52.250;8.478;2023-07-28T11:43:48;3.30;;;3.00;;
12112;SDS011;6120;52.250;8.478;2023-07-28T11:49:17;3.10;;;2.80;;
12112;SDS011;6120;52.250;8.478;2023-07-28T11:51:51;3.05;;;2.75;;
12112;SDS011;6120;52.250;8.478;2023-07-28T11:54:24;2.80;;;2.60;;
12112;SDS011;6120;52.250;8.478;2023-07-28T11:56:55;2.80;;;2.60;;
12112;SDS011;6120;52.250;8.478;2023-07-28T11:59:23;3.22;;;2.92;;
12112;SDS011;6120;52.250;8.478;2023-07-28T12:01:57;2.90;;;2.70;;
12112;SDS011;6120;52.250;8.478;2023-07-28T12:04:32;3.10;;;2.80;;
12112;SDS011;6120;52.250;8.478;2023-07-28T12:07:07;3.00;;;2.70;;
12112;SDS011;6120;52.250;8.478;2023-07-28T12:09:47;2.83;;;2.63;;
12112;SDS011;6120;52.250;8.478;2023-07-28T12:12:28;2.92;;;2.72;;
12112;SDS011;6120;52.250;8.478;2023-07-28T12:14:56;3.15;;;2.85;;
12112;SDS011;6120;52.250;8.478;2023-07-28T12:17:33;3.60;;;3.30;;
12112;SDS011;6120;52.250;8.478;2023-07-28T12:20:06;3.35;;;3.05;;
12112;SDS011;6120;52.250;8.478;2023-07-28T12:22:38;4.20;;;2.95;;
12112;SDS011;6120;52.250;8.478;2023-07-28T12:25:05;3.10;;;2.90;;
12112;SDS011;6120;52.250;8.478;2023-07-28T12:27:32;3.30;;;3.00;;
12112;SDS011;6120;52.250;8.478;2023-07-28T12:29:59;2.60;;;2.40;;
12112;SDS011;6120;52.250;8.478;2023-07-28T12:32:30;3.78;;;3.47;;
12112;SDS011;6120;52.250;8.478;2023-07-28T12:35:02;3.42;;;3.13;;
12112;SDS011;6120;52.250;8.478;2023-07-28T12:37:33;3.50;;;3.20;;
12112;SDS011;6120;52.250;8.478;2023-07-28T12:40:02;3.92;;;3.53;;
12112;SDS011;6120;52.250;8.478;2023-07-28T12:42:30;3.50;;;3.20;;
12112;SDS011;6120;52.250;8.478;2023-07-28T12:45:00;3.80;;;3.40;;
12112;SDS011;6120;52.250;8.478;2023-07-28T12:47:30;3.67;;;3.30;;
12112;SDS011;6120;52.250;8.478;2023-07-28T12:50:03;3.60;;;3.30;;
12112;SDS011;6120;52.250;8.478;2023-07-28T12:52:44;3.25;;;2.95;;
12112;SDS011;6120;52.250;8.478;2023-07-28T12:55:14;3.28;;;2.97;;
12112;SDS011;6120;52.250;8.478;2023-07-28T12:57:41;3.58;;;3.28;;
12112;SDS011;6120;52.250;8.478;2023-07-28T13:00:08;3.10;;;2.80;;
12112;SDS011;6120;52.250;8.478;2023-07-28T13:02:42;2.90;;;2.70;;
12112;SDS011;6120;52.250;8.478;2023-07-28T13:05:10;3.40;;;3.10;;
12112;SDS011;6120;52.250;8.478;2023-07-28T13:07:38;3.10;;;2.80;;
12112;SDS011;6120;52.250;8.478;2023-07-28T13:10:08;3.13;;;2.92;;
12112;SDS011;6120;52.250;8.478;2023-07-28T13:12:56;3.25;;;2.95;;
12112;SDS011;6120;52.250;8.478;2023-07-28T13:15:24;3.42;;;3.13;;
12112;SDS011;6120;52.250;8.478;2023-07-28T13:17:50;2.65;;;2.45;;
12112;SDS011;6120;52.250;8.478;2023-07-28T13:20:17;2.97;;;2.65;;
12112;SDS011;6120;52.250;8.478;2023-07-28T13:22:44;3.25;;;2.95;;
12112;SDS011;6120;52.250;8.478;2023-07-28T13:25:11;2.70;;;2.50;;
12112;SDS011;6120;52.250;8.478;2023-07-28T13:27:37;3.22;;;2.92;;
12112;SDS011;6120;52.250;8.478;2023-07-28T13:30:04;2.95;;;2.75;;
12112;SDS011;6120;52.250;8.478;2023-07-28T13:32:31;2.83;;;2.55;;
12112;SDS011;6120;52.250;8.478;2023-07-28T13:34:58;2.70;;;2.50;;
12112;SDS011;6120;52.250;8.478;2023-07-28T13:37:24;2.22;;;2.03;;
12112;SDS011;6120;52.250;8.478;2023-07-28T13:39:51;2.85;;;2.55;;
12112;SDS011;6120;52.250;8.478;2023-07-28T13:42:18;2.85;;;2.60;;
12112;SDS011;6120;52.250;8.478;2023-07-28T13:44:45;2.35;;;2.15;;
12112;SDS011;6120;52.250;8.478;2023-07-28T13:49:50;2.58;;;2.38;;
12112;SDS011;6120;52.250;8.478;2023-07-28T13:52:17;2.50;;;2.30;;
12112;SDS011;6120;52.250;8.478;2023-07-28T13:54:47;2.40;;;2.20;;
12112;SDS011;6120;52.250;8.478;2023-07-28T13:57:18;2.67;;;2.47;;
12112;SDS011;6120;52.250;8.478;2023-07-28T13:59:45;2.63;;;2.40;;
12112;SDS011;6120;52.250;8.478;2023-07-28T14:02:11;2.50;;;2.30;;
12112;SDS011;6120;52.250;8.478;2023-07-28T14:04:38;2.40;;;2.20;;
12112;SDS011;6120;52.250;8.478;2023-07-28T14:07:05;2.38;;;2.17;;
12112;SDS011;6120;52.250;8.478;2023-07-28T14:09:32;2.47;;;2.28;;
12112;SDS011;6120;52.250;8.478;2023-07-28T14:11:59;2.60;;;2.40;;
12112;SDS011;6120;52.250;8.478;2023-07-28T14:14:26;2.40;;;2.15;;
12112;SDS011;6120;52.250;8.478;2023-07-28T14:16:52;2.30;;;2.10;;
12112;SDS011;6120;52.250;8.478;2023-07-28T14:19:19;2.42;;;2.22;;
12112;SDS011;6120;52.250;8.478;2023-07-28T14:21:46;2.60;;;2.40;;
12112;SDS011;6120;52.250;8.478;2023-07-28T14:24:12;2.40;;;2.20;;
12112;SDS011;6120;52.250;8.478;2023-07-28T14:26:39;3.67;;;2.60;;
12112;SDS011;6120;52.250;8.478;2023-07-28T14:29:06;2.05;;;1.95;;
12112;SDS011;6120;52.250;8.478;2023-07-28T14:31:33;2.58;;;2.30;;
12112;SDS011;6120;52.250;8.478;2023-07-28T14:34:00;2.25;;;2.05;;
12112;SDS011;6120;52.250;8.478;2023-07-28T14:36:27;2.40;;;2.20;;
12112;SDS011;6120;52.250;8.478;2023-07-28T14:38:53;2.55;;;2.35;;
12112;SDS011;6120;52.250;8.478;2023-07-28T14:41:22;2.40;;;2.20;;
12112;SDS011;6120;52.250;8.478;2023-07-28T14:43:49;2.08;;;1.90;;
12112;SDS011;6120;52.250;8.478;2023-07-28T14:46:15;1.98;;;1.88;;
12112;SDS011;6120;52.250;8.478;2023-07-28T14:48:42;2.60;;;2.40;;
12112;SDS011;6120;52.250;8.478;2023-07-28T14:51:09;2.05;;;1.85;;
12112;SDS011;6120;52.250;8.478;2023-07-28T14:53:36;2.20;;;2.00;;
12112;SDS011;6120;52.250;8.478;2023-07-28T14:58:31;2.03;;;1.92;;
12112;SDS011;6120;52.250;8.478;2023-07-28T15:00:58;1.70;;;1.60;;
12112;SDS011;6120;52.250;8.478;2023-07-28T15:03:27;2.35;;;1.90;;
12112;SDS011;6120;52.250;8.478;2023-07-28T16:22:49;4.85;;;3.40;;
12112;SDS011;6120;52.250;8.478;2023-07-28T16:25:17;5.43;;;3.28;;
12112;SDS011;6120;52.250;8.478;2023-07-28T16:30:10;6.07;;;3.30;;
12112;SDS011;6120;52.250;8.478;2023-07-28T16:32:37;4.82;;;3.05;;
12112;SDS011;6120;52.250;8.478;2023-07-28T16:35:04;4.80;;;3.20;;
12112;SDS011;6120;52.250;8.478;2023-07-28T16:37:31;5.32;;;3.30;;
12112;SDS011;6120;52.250;8.478;2023-07-28T16:39:57;3.70;;;2.47;;
12112;SDS011;6120;52.250;8.478;2023-07-28T16:42:25;4.25;;;2.33;;
12112;SDS011;6120;52.250;8.478;2023-07-28T16:44:51;3.40;;;2.45;;
12112;SDS011;6120;52.250;8.478;2023-07-28T16:47:18;4.97;;;2.50;;